Time;durP1;ratioP1;P1;durP2;ratioP2;P2;SDS_P1;SDS_P2;PMS_P1;PMS_P2;Temp;Humidity;BMP_temperature;BMP_pressure;BME280_temperature;BME280_humidity;BME280_pressure;Samples;Min_cycle;Max_cycle;Signal;HPM_P1;HPM_P2
2021/09/06 00:01:08;;;;;;;14.00;12.70;;;13.90;99.90;;;12.89;99.74;98520.19;5114789;28;20442;-83
2021/09/06 00:03:35;;;;;;;14.60;13.13;;;13.90;99.90;;;12.83;99.72;98515.66;5103529;28;20455;-83
2021/09/06 00:06:03;;;;;;;13.83;12.43;;;13.80;99.90;;;12.52;99.94;98482.88;5104377;28;20815;-83
2021/09/06 00:08:32;;;;;;;14.37;12.90;;;13.70;99.90;;;12.66;100.00;98508.03;5103035;28;20485;-83
2021/09/06 00:11:05;;;;;;;14.40;13.00;;;13.60;99.90;;;12.34;100.00;98453.78;5117518;27;20453;-83
2021/09/06 00:13:34;;;;;;;13.50;12.30;;;13.70;99.90;;;12.69;100.00;98521.16;5117523;28;20489;-83
2021/09/06 00:16:03;;;;;;;13.43;12.13;;;13.60;99.90;;;12.67;99.90;98517.84;5121068;28;20502;-83
2021/09/06 00:18:30;;;;;;;14.97;13.47;;;13.70;99.90;;;12.60;100.00;98522.44;5122799;28;20538;-83
2021/09/06 00:21:01;;;;;;;14.27;12.90;;;13.60;99.90;;;12.58;100.00;98522.66;5105657;28;20466;-83
2021/09/06 00:23:29;;;;;;;12.97;11.77;;;13.60;99.90;;;12.49;100.00;98514.97;5109376;28;20449;-83
2021/09/06 00:26:00;;;;;;;15.07;11.83;;;13.50;99.90;;;12.51;100.00;98518.31;5105620;28;20450;-83
2021/09/06 00:28:29;;;;;;;13.30;12.00;;;13.50;99.90;;;12.50;100.00;98508.50;5128271;27;20519;-82
2021/09/06 00:30:56;;;;;;;14.60;13.20;;;13.50;99.90;;;12.54;100.00;98524.13;5109010;28;20469;-83
2021/09/06 00:33:29;;;;;;;14.10;12.60;;;13.50;99.90;;;12.52;100.00;98530.84;5104819;28;20435;-83
2021/09/06 00:38:38;;;;;;;15.13;13.70;;;13.40;99.90;;;12.37;100.00;98529.22;5113380;28;20522;-83
2021/09/06 00:41:05;;;;;;;14.30;12.90;;;13.40;99.90;;;12.39;100.00;98527.13;5112174;28;20507;-83
2021/09/06 00:43:32;;;;;;;15.10;13.60;;;13.40;99.90;;;12.51;100.00;98523.72;5120840;27;20911;-83
2021/09/06 00:46:00;;;;;;;14.10;12.70;;;13.50;99.90;;;12.49;100.00;98531.25;5103392;28;20451;-83
2021/09/06 00:48:31;;;;;;;14.50;13.00;;;13.50;99.90;;;12.45;100.00;98530.88;5129947;27;20468;-83
2021/09/06 00:51:01;;;;;;;15.27;13.00;;;13.50;99.90;;;12.30;100.00;98502.16;5116608;28;20820;-83
2021/09/06 00:53:31;;;;;;;13.90;12.60;;;13.50;99.90;;;12.28;100.00;98516.97;5102423;28;20497;-83
2021/09/06 00:56:02;;;;;;;14.60;12.40;;;13.40;99.90;;;12.29;100.00;98526.75;5063146;28;20466;-83
2021/09/06 00:58:29;;;;;;;14.87;13.17;;;13.30;99.90;;;12.20;100.00;98526.16;5116258;28;20510;-83
2021/09/06 01:00:57;;;;;;;17.83;14.20;;;13.20;99.90;;;12.17;100.00;98511.16;5116073;28;20447;-83
2021/09/06 01:03:26;;;;;;;19.57;13.80;;;13.20;99.90;;;12.09;100.00;98522.25;5115904;28;20443;-83
2021/09/06 01:05:59;;;;;;;14.87;13.37;;;13.20;99.90;;;12.08;100.00;98528.69;5100824;28;20444;-84
2021/09/06 01:08:30;;;;;;;17.17;14.20;;;13.20;99.90;;;12.13;100.00;98538.88;5068056;28;20439;-83
2021/09/06 01:11:04;;;;;;;14.97;13.37;;;13.10;99.90;;;12.14;100.00;98541.38;5104728;28;20539;-83
2021/09/06 01:13:40;;;;;;;18.40;15.30;;;13.10;99.90;;;12.00;100.00;98521.59;5090980;28;20523;-83
2021/09/06 01:16:09;;;;;;;17.17;15.40;;;13.10;99.90;;;12.09;100.00;98541.19;5111862;27;20485;-83
2021/09/06 01:18:36;;;;;;;17.97;15.87;;;13.10;99.90;;;12.12;100.00;98543.47;5120025;28;20481;-83
2021/09/06 01:21:12;;;;;;;16.57;14.90;;;13.10;99.90;;;11.69;100.00;98477.13;5148487;27;20505;-83
2021/09/06 01:23:45;;;;;;;17.07;15.33;;;13.10;99.90;;;11.90;100.00;98513.09;5139623;27;20466;-83
2021/09/06 01:26:15;;;;;;;15.43;13.80;;;13.10;99.90;;;12.01;100.00;98533.25;5121381;27;20503;-83
2021/09/06 01:28:42;;;;;;;15.27;13.80;;;13.00;99.90;;;12.00;100.00;98545.13;5109924;28;20428;-82
2021/09/06 01:31:10;;;;;;;15.63;14.00;;;13.00;99.90;;;11.81;99.10;98498.94;5114103;28;21055;-82
2021/09/06 01:33:38;;;;;;;16.87;14.43;;;13.00;99.90;;;12.04;98.29;98533.69;5116665;28;20447;-82
2021/09/06 01:36:08;;;;;;;16.57;14.77;;;13.10;98.40;;;12.14;98.26;98541.38;5120037;28;20487;-83
2021/09/06 01:38:42;;;;;;;15.77;14.10;;;13.10;98.00;;;12.04;98.82;98549.09;5111334;28;20467;-83
2021/09/06 01:41:15;;;;;;;15.00;13.37;;;13.10;97.60;;;11.89;99.22;98533.91;5100364;28;20484;-84
2021/09/06 01:43:42;;;;;;;17.07;15.20;;;13.10;98.90;;;11.70;99.22;98491.47;5115165;27;20480;-83
2021/09/06 01:46:12;;;;;;;19.83;16.03;;;13.00;99.70;;;11.62;99.15;98492.53;5094688;27;20459;-83
2021/09/06 01:48:39;;;;;;;20.90;16.17;;;13.00;99.70;;;11.83;100.00;98540.16;5095244;28;20447;-83
2021/09/06 01:51:08;;;;;;;24.70;15.97;;;12.90;99.90;;;11.81;100.00;98526.03;5093648;28;20935;-82
2021/09/06 01:53:39;;;;;;;19.63;15.63;;;12.90;99.90;;;12.03;99.78;98544.75;5115675;28;20447;-83
2021/09/06 01:56:06;;;;;;;19.10;14.27;;;13.00;99.90;;;12.03;99.52;98544.75;5111220;28;20519;-83
2021/09/06 01:58:43;;;;;;;18.57;16.67;;;13.10;98.60;;;11.95;99.54;98531.41;5066011;28;20456;-82
2021/09/06 02:01:14;;;;;;;19.43;15.37;;;13.10;98.00;;;11.86;99.22;98545.16;5100828;28;20446;-82
2021/09/06 02:03:42;;;;;;;17.60;15.70;;;13.00;98.10;;;11.61;99.70;98517.91;5119558;28;20458;-84
2021/09/06 02:06:13;;;;;;;18.97;15.40;;;12.90;98.70;;;11.46;100.00;98504.63;5075216;28;20456;-82
2021/09/06 02:08:49;;;;;;;16.37;14.63;;;12.80;99.90;;;11.50;100.00;98516.69;5123252;28;20949;-83
2021/09/06 02:11:17;;;;;;;18.90;15.60;;;12.70;99.90;;;11.65;99.91;98532.69;5096762;28;20585;-82
2021/09/06 02:13:46;;;;;;;18.70;14.33;;;12.90;99.90;;;11.76;99.79;98548.31;5106257;28;20803;-83
2021/09/06 02:16:13;;;;;;;17.00;15.20;;;12.80;99.90;;;11.68;99.88;98543.13;5125304;28;21147;-84
2021/09/06 02:18:41;;;;;;;15.40;13.80;;;12.70;99.90;;;11.67;100.00;98546.03;5110161;27;20463;-83
2021/09/06 02:21:09;;;;;;;18.10;15.03;;;12.70;99.90;;;11.58;100.00;98538.09;5079756;28;20481;-83
2021/09/06 02:23:36;;;;;;;17.27;15.40;;;12.70;99.90;;;11.66;100.00;98545.19;5096748;28;20503;-83
2021/09/06 02:26:06;;;;;;;16.80;14.60;;;12.70;99.90;;;11.57;100.00;98541.84;5098355;28;20565;-83
2021/09/06 02:28:35;;;;;;;16.93;14.20;;;12.70;99.90;;;11.55;100.00;98549.34;5110583;28;20580;-83
2021/09/06 02:31:05;;;;;;;16.63;14.83;;;12.60;99.90;;;11.56;100.00;98542.91;5122369;28;20447;-83
2021/09/06 02:33:33;;;;;;;16.17;14.47;;;12.60;99.90;;;11.66;100.00;98550.59;5124405;28;20442;-82
2021/09/06 02:36:00;;;;;;;16.70;15.00;;;12.80;99.90;;;11.20;100.00;98482.75;5102714;28;20938;-83
2021/09/06 02:38:31;;;;;;;16.70;14.90;;;12.60;99.90;;;11.36;100.00;98501.50;5111742;27;20474;-83
2021/09/06 02:40:58;;;;;;;15.43;13.97;;;12.60;99.90;;;11.52;100.00;98538.97;5114826;28;20470;-83
2021/09/06 02:43:25;;;;;;;15.53;13.90;;;12.60;99.90;;;11.54;100.00;98536.88;5110867;28;20484;-83
2021/09/06 02:45:52;;;;;;;19.77;12.50;;;12.60;99.90;;;11.46;100.00;98523.56;5087461;27;20449;-85
2021/09/06 02:48:25;;;;;;;17.27;13.40;;;12.60;99.90;;;11.57;100.00;98536.44;5078636;28;20487;-82
2021/09/06 02:50:52;;;;;;;14.97;13.47;;;12.60;99.90;;;11.29;100.00;98499.63;5098538;28;20458;-82
2021/09/06 02:53:19;;;;;;;15.73;14.03;;;12.60;99.90;;;11.52;100.00;98538.09;5111054;28;20542;-82
2021/09/06 02:55:46;;;;;;;15.67;14.07;;;12.60;99.90;;;11.51;100.00;98537.28;5109968;28;20519;-82
2021/09/06 02:58:13;;;;;;;17.87;14.03;;;12.60;99.90;;;11.33;100.00;98511.69;5093380;28;20586;-82
2021/09/06 03:00:41;;;;;;;15.03;13.43;;;12.50;99.90;;;11.48;100.00;98541.25;5091602;27;20741;-82
2021/09/06 03:03:08;;;;;;;16.53;14.40;;;12.50;99.90;;;11.41;100.00;98534.16;5093915;28;20467;-82
2021/09/06 03:05:37;;;;;;;16.00;14.30;;;12.40;99.90;;;11.51;99.60;98542.69;5120194;28;20456;-82
2021/09/06 03:08:05;;;;;;;16.47;14.77;;;12.50;99.90;;;11.16;100.00;98508.56;5096111;28;20438;-82
2021/09/06 03:10:32;;;;;;;16.90;13.77;;;12.40;99.90;;;11.36;100.00;98539.38;5096710;28;20504;-83
2021/09/06 03:13:00;;;;;;;19.17;15.03;;;12.40;99.90;;;11.19;100.00;98512.75;5109986;28;20464;-83
2021/09/06 03:15:27;;;;;;;15.93;14.30;;;12.30;99.90;;;11.41;100.00;98540.41;5105704;28;20448;-83
2021/09/06 03:17:54;;;;;;;16.23;13.63;;;12.40;99.90;;;11.09;99.84;98506.91;5099903;28;20467;-83
2021/09/06 03:20:21;;;;;;;15.20;12.80;;;12.40;99.90;;;11.21;100.00;98516.06;5109774;28;20538;-83
2021/09/06 03:22:53;;;;;;;17.40;13.10;;;12.40;99.90;;;11.15;100.00;98516.91;5101127;28;20504;-81
2021/09/06 03:25:21;;;;;;;15.40;14.00;;;12.20;99.90;;;11.18;100.00;98527.31;5096047;28;20777;-83
2021/09/06 03:27:48;;;;;;;17.17;13.00;;;12.30;99.90;;;11.06;100.00;98510.84;5093445;28;20965;-82
2021/09/06 03:30:17;;;;;;;16.90;15.10;;;12.30;99.90;;;10.33;100.00;98401.56;5090225;28;20542;-82
2021/09/06 03:32:44;;;;;;;15.53;13.90;;;12.30;99.90;;;11.17;100.00;98533.75;5098283;28;20490;-81
2021/09/06 03:35:14;;;;;;;18.73;13.77;;;12.20;99.90;;;11.16;100.00;98542.91;5079350;28;20465;-81
2021/09/06 03:37:43;;;;;;;15.57;14.07;;;12.20;99.90;;;11.11;100.00;98518.34;5093518;28;20478;-81
2021/09/06 03:40:12;;;;;;;15.70;14.10;;;12.20;99.90;;;11.11;100.00;98534.56;5073984;28;20455;-82
2021/09/06 03:42:40;;;;;;;15.50;13.87;;;12.10;99.90;;;11.07;100.00;98544.13;5111798;28;20570;-82
2021/09/06 03:45:09;;;;;;;14.80;13.30;;;12.10;99.90;;;11.08;100.00;98538.53;5116539;28;20480;-82
2021/09/06 03:47:38;;;;;;;15.27;13.07;;;12.10;99.90;;;10.86;100.00;98503.53;5111150;28;20447;-82
2021/09/06 03:52:49;;;;;;;14.43;13.03;;;12.00;99.90;;;10.97;100.00;98526.44;5111718;28;20480;-83
2021/09/06 03:55:19;;;;;;;14.20;12.90;;;12.00;99.90;;;10.91;100.00;98530.78;5095504;28;20466;-83
2021/09/06 03:57:46;;;;;;;15.10;13.27;;;12.00;99.90;;;10.59;100.00;98492.66;5116128;28;20467;-83
2021/09/06 04:02:59;;;;;;;15.73;14.03;;;11.90;99.90;;;10.75;100.00;98523.06;5098627;28;20550;-83
2021/09/06 04:05:26;;;;;;;14.97;13.47;;;12.00;99.90;;;10.77;100.00;98537.22;5096688;28;20443;-83
2021/09/06 04:07:53;;;;;;;15.97;14.23;;;11.90;99.90;;;10.79;100.00;98545.09;5114537;28;20447;-81
2021/09/06 04:10:23;;;;;;;16.30;14.40;;;11.80;99.90;;;10.62;100.00;98529.25;5114772;28;20451;-83
2021/09/06 04:12:53;;;;;;;15.37;13.77;;;11.80;99.90;;;10.66;100.00;98527.00;5109536;28;20444;-83
2021/09/06 04:15:22;;;;;;;14.63;13.23;;;11.80;99.90;;;10.83;100.00;98552.59;5109171;28;20459;-83
2021/09/06 04:17:49;;;;;;;16.63;14.67;;;11.90;99.90;;;10.82;100.00;98550.09;5118187;28;20474;-83
2021/09/06 04:20:16;;;;;;;14.80;13.37;;;11.90;99.90;;;10.76;100.00;98552.59;5099827;28;20443;-83
2021/09/06 04:22:43;;;;;;;15.40;13.57;;;11.80;99.90;;;10.83;100.00;98567.97;5120100;28;20459;-81
2021/09/06 04:25:12;;;;;;;15.20;13.80;;;11.90;99.90;;;10.73;100.00;98568.38;5117934;28;20455;-83
2021/09/06 04:27:41;;;;;;;15.30;13.77;;;11.80;99.90;;;10.44;100.00;98525.25;5095672;28;20486;-82
2021/09/06 04:30:13;;;;;;;14.40;12.90;;;11.80;99.90;;;10.68;100.00;98568.16;5115042;28;20495;-82
2021/09/06 04:32:40;;;;;;;15.27;13.67;;;11.80;99.90;;;10.53;100.00;98557.50;5123927;28;20447;-83
2021/09/06 04:35:09;;;;;;;15.53;14.00;;;11.70;99.90;;;10.66;100.00;98579.16;5113074;28;20473;-83
2021/09/06 04:37:39;;;;;;;14.80;13.30;;;11.70;99.90;;;10.37;100.00;98531.66;5090244;28;20491;-83
2021/09/06 04:42:55;;;;;;;15.90;13.60;;;11.70;99.90;;;10.64;100.00;98570.44;5092643;28;20542;-83
2021/09/06 04:45:27;;;;;;;17.07;14.70;;;11.80;99.90;;;10.60;100.00;98558.38;5119994;27;20458;-83
2021/09/06 04:48:02;;;;;;;16.37;14.67;;;11.80;99.90;;;10.43;100.00;98542.50;5108734;28;20439;-81
2021/09/06 04:50:29;;;;;;;16.30;14.03;;;11.80;99.90;;;10.69;100.00;98573.38;5105544;28;20458;-82
2021/09/06 04:52:58;;;;;;;16.60;14.83;;;11.80;99.90;;;10.76;100.00;98585.03;5118643;28;20462;-82
2021/09/06 04:55:26;;;;;;;16.80;13.87;;;11.80;99.90;;;10.79;100.00;98588.34;5122705;27;20434;-82
2021/09/06 04:57:57;;;;;;;16.20;14.60;;;11.90;99.90;;;10.62;100.00;98556.28;5128069;27;20475;-83
2021/09/06 05:00:26;;;;;;;15.70;14.07;;;12.00;99.90;;;10.83;99.93;98586.91;5079551;28;20485;-81
2021/09/06 05:02:53;;;;;;;15.80;14.10;;;11.90;99.90;;;10.68;100.00;98565.47;5098547;28;20466;-83
2021/09/06 05:05:21;;;;;;;19.00;14.60;;;11.90;99.90;;;10.86;100.00;98590.03;5098804;28;20462;-82
2021/09/06 05:07:50;;;;;;;19.57;13.93;;;11.90;99.90;;;10.99;99.68;98599.22;5094166;28;20459;-82
2021/09/06 05:10:17;;;;;;;16.33;14.50;;;12.00;99.90;;;10.98;99.45;98592.16;5088852;28;20455;-84
2021/09/06 05:12:45;;;;;;;15.60;14.07;;;12.10;98.70;;;11.02;99.55;98594.25;5118708;27;20456;-82
2021/09/06 05:15:14;;;;;;;15.07;13.57;;;12.10;98.60;;;11.02;99.20;98582.59;5128620;27;20470;-82
2021/09/06 05:17:44;;;;;;;18.40;13.70;;;12.20;98.00;;;11.26;98.05;98600.13;5111402;28;20471;-82
2021/09/06 05:20:12;;;;;;;15.23;13.40;;;12.20;97.10;;;11.25;97.38;98601.16;5122279;28;20453;-82
2021/09/06 05:22:39;;;;;;;14.90;13.37;;;12.40;96.40;;;11.32;97.85;98609.28;5084845;28;20448;-82
2021/09/06 05:25:12;;;;;;;15.60;12.50;;;12.40;96.40;;;11.36;98.10;98604.31;5132930;27;20438;-82
2021/09/06 05:27:42;;;;;;;15.43;13.90;;;12.50;96.40;;;11.50;97.16;98616.81;5123759;27;20451;-82
2021/09/06 05:30:11;;;;;;;14.33;12.83;;;12.60;95.20;;;11.52;96.22;98593.06;5131050;28;20451;-83
2021/09/06 05:32:42;;;;;;;16.40;13.67;;;12.70;94.30;;;11.72;95.90;98620.16;5110924;28;20510;-82
2021/09/06 05:35:13;;;;;;;15.53;13.33;;;12.80;94.00;;;11.74;95.03;98623.47;5131379;27;20457;-82
2021/09/06 05:37:42;;;;;;;15.90;13.80;;;12.90;93.50;;;11.88;95.18;98620.78;5105483;28;20498;-83
2021/09/06 05:40:13;;;;;;;14.27;12.87;;;12.90;93.40;;;11.94;93.20;98628.03;5118811;28;20519;-82
2021/09/06 05:42:42;;;;;;;15.40;13.47;;;13.00;92.20;;;12.01;92.89;98634.34;5107485;28;20511;-83
2021/09/06 05:45:15;;;;;;;13.83;12.50;;;13.10;91.80;;;12.02;93.27;98630.59;5088209;28;20482;-82
2021/09/06 05:47:44;;;;;;;12.97;11.67;;;13.10;92.00;;;11.97;93.54;98610.56;5126194;28;20482;-83
2021/09/06 05:50:17;;;;;;;15.00;13.50;;;13.20;92.10;;;12.23;92.72;98635.97;5108172;27;20534;-83
2021/09/06 05:52:44;;;;;;;13.63;12.23;;;13.30;91.70;;;12.25;91.86;98623.88;5133057;27;20473;-82
2021/09/06 05:55:12;;;;;;;13.20;12.00;;;13.40;91.30;;;12.39;91.74;98635.53;5105071;28;20440;-84
2021/09/06 05:57:40;;;;;;;14.67;13.10;;;13.50;90.90;;;12.52;89.96;98640.06;5128483;27;20542;-84
2021/09/06 06:00:08;;;;;;;14.57;13.27;;;13.50;90.00;;;12.53;89.81;98624.66;5125702;27;20475;-85
2021/09/06 06:02:38;;;;;;;15.07;13.03;;;13.60;89.40;;;12.64;89.40;98634.81;5101774;28;20454;-83
2021/09/06 06:05:10;;;;;;;19.30;13.80;;;13.70;88.70;;;12.78;88.57;98638.31;5114797;28;20470;-84
2021/09/06 06:07:37;;;;;;;16.73;14.33;;;13.80;88.10;;;12.86;88.00;98635.34;5117178;28;20467;-82
2021/09/06 06:10:05;;;;;;;14.67;13.27;;;13.90;87.40;;;12.94;87.43;98647.84;5094739;28;20444;-81
2021/09/06 06:12:33;;;;;;;15.33;13.77;;;14.00;86.60;;;13.00;87.45;98648.84;5100731;28;20458;-84
2021/09/06 06:15:03;;;;;;;14.40;12.97;;;14.00;86.50;;;12.98;86.56;98624.69;5111738;28;20516;-81
2021/09/06 06:17:32;;;;;;;15.20;13.60;;;14.10;85.90;;;13.30;85.82;98646.41;5116606;27;21038;-82
2021/09/06 06:19:59;;;;;;;20.50;14.47;;;14.30;85.70;;;13.43;85.46;98650.94;5114005;28;20479;-82
2021/09/06 06:22:28;;;;;;;14.67;12.97;;;14.30;85.00;;;13.42;85.26;98641.13;5109695;28;20476;-84
2021/09/06 06:25:05;;;;;;;18.67;14.53;;;14.50;85.10;;;13.58;85.34;98639.78;5115953;28;20943;-84
2021/09/06 06:27:41;;;;;;;21.63;14.43;;;14.60;84.90;;;13.49;84.45;98613.97;5095958;28;20439;-86
2021/09/06 06:30:16;;;;;;;16.57;13.73;;;14.80;84.00;;;13.60;84.43;98624.13;5098517;28;20512;-83
2021/09/06 06:33:00;;;;;;;16.43;13.57;;;14.80;83.90;;;13.68;83.65;98620.28;5099288;28;20435;-82
2021/09/06 06:35:35;;;;;;;15.80;14.30;;;15.00;83.60;;;13.76;83.55;98600.19;5104619;28;20485;-82
2021/09/06 06:38:06;;;;;;;15.13;13.07;;;15.10;83.30;;;14.21;82.63;98658.09;5124062;28;20487;-82
2021/09/06 06:40:34;;;;;;;17.30;15.10;;;15.20;82.40;;;14.40;81.34;98654.34;5097301;28;20463;-82
2021/09/06 06:43:02;;;;;;;21.40;13.67;;;15.40;81.70;;;14.55;80.08;98661.28;5114861;27;21011;-83
2021/09/06 06:45:35;;;;;;;17.83;14.17;;;15.50;80.40;;;14.64;79.87;98651.78;5090658;28;20448;-84
2021/09/06 06:48:06;;;;;;;14.37;12.90;;;15.60;80.20;;;14.78;79.87;98657.09;5116118;28;20451;-83
2021/09/06 06:50:33;;;;;;;16.90;13.70;;;15.80;80.20;;;14.85;79.41;98653.22;5096605;28;20518;-83
2021/09/06 06:53:00;;;;;;;16.20;12.87;;;15.90;79.40;;;14.92;79.14;98644.97;5110059;28;20471;-79
2021/09/06 06:55:29;;;;;;;15.43;13.60;;;16.00;79.10;;;15.13;78.73;98651.84;5095377;28;20512;-79
2021/09/06 06:57:58;;;;;;;19.17;14.17;;;16.10;78.70;;;15.28;77.81;98647.88;5110982;28;20472;-82
2021/09/06 07:00:29;;;;;;;34.00;15.10;;;16.30;78.20;;;15.40;76.90;98634.31;5114641;28;20949;-82
2021/09/06 07:03:00;;;;;;;15.73;13.33;;;16.40;77.30;;;15.61;75.56;98651.19;5098557;28;20452;-84
2021/09/06 07:05:34;;;;;;;15.17;13.57;;;16.60;76.50;;;15.69;75.82;98648.94;5120360;28;20874;-79
2021/09/06 07:08:02;;;;;;;13.80;12.40;;;16.70;76.40;;;15.71;74.54;98646.00;5108000;28;20473;-82
2021/09/06 07:10:31;;;;;;;13.90;12.50;;;16.80;75.20;;;15.90;74.29;98648.66;5110584;28;20821;-80
2021/09/06 07:12:58;;;;;;;13.67;12.37;;;16.90;74.80;;;16.16;73.17;98663.72;5114358;28;20531;-86
2021/09/06 07:15:32;;;;;;;13.77;12.37;;;17.10;74.10;;;16.37;72.88;98664.19;5101754;28;20450;-83
2021/09/06 07:18:01;;;;;;;14.13;12.73;;;17.30;73.80;;;16.53;71.06;98666.22;5117275;28;20538;-82
2021/09/06 07:20:29;;;;;;;15.47;12.77;;;17.50;72.40;;;16.67;71.51;98674.97;5112196;28;20511;-77
2021/09/06 07:22:58;;;;;;;14.53;13.13;;;17.60;72.10;;;16.81;70.75;98669.25;5123116;28;20477;-83
2021/09/06 07:25:25;;;;;;;14.43;12.93;;;17.70;71.70;;;16.85;71.24;98652.19;5102050;28;20469;-83
2021/09/06 07:27:55;;;;;;;18.13;13.37;;;17.80;71.80;;;16.93;69.53;98634.59;5101969;28;21079;-83
2021/09/06 07:30:28;;;;;;;13.17;11.93;;;18.00;70.70;;;17.24;69.05;98668.00;5122168;28;20979;-83
2021/09/06 07:32:56;;;;;;;21.88;13.75;;;18.10;70.30;;;17.23;68.49;98649.94;5126123;27;20489;-87
2021/09/06 07:35:24;;;;;;;14.93;13.20;;;18.30;69.80;;;17.40;68.21;98660.09;5117654;28;20257;-81
2021/09/06 07:37:52;;;;;;;14.10;12.90;;;18.30;69.30;;;17.50;67.35;98670.38;5127964;28;20457;-80
2021/09/06 07:40:20;;;;;;;14.60;13.05;;;18.40;68.80;;;17.56;67.49;98670.22;5113047;28;20458;-81
2021/09/06 07:42:49;;;;;;;16.87;13.10;;;18.50;68.60;;;17.56;66.69;98655.72;5110029;28;20214;-82
2021/09/06 07:45:19;;;;;;;12.93;11.60;;;18.60;68.20;;;17.78;66.37;98677.69;5094759;28;20446;-83
2021/09/06 07:47:48;;;;;;;12.63;11.43;;;18.60;67.60;;;17.84;66.46;98686.81;5107444;28;20456;-83
2021/09/06 07:50:19;;;;;;;16.43;12.37;;;18.70;68.00;;;17.91;66.02;98678.44;5109224;28;20450;-81
2021/09/06 07:52:46;;;;;;;14.83;12.20;;;18.80;67.60;;;18.01;65.67;98686.84;5117318;28;20469;-78
2021/09/06 07:55:14;;;;;;;14.30;11.77;;;18.90;67.40;;;18.08;65.53;98675.78;5094754;28;20955;-84
2021/09/06 07:57:42;;;;;;;14.00;12.53;;;19.00;67.30;;;18.28;65.40;98697.16;5113843;28;20454;-84
2021/09/06 08:00:16;;;;;;;14.20;12.53;;;19.10;67.00;;;18.39;64.68;98687.19;5119329;28;20501;-82
2021/09/06 08:02:50;;;;;;;13.90;12.33;;;19.20;66.50;;;18.44;65.28;98694.66;5114101;28;20463;-81
2021/09/06 08:05:20;;;;;;;13.70;12.30;;;19.30;66.70;;;18.54;64.52;98689.31;5120103;28;20466;-81
2021/09/06 08:07:49;;;;;;;15.20;12.43;;;19.40;66.20;;;18.63;64.18;98690.53;5097958;28;20446;-82
2021/09/06 08:10:18;;;;;;;12.43;11.23;;;19.50;66.10;;;18.76;62.76;98686.59;5101952;28;20443;-82
2021/09/06 08:12:50;;;;;;;13.43;11.90;;;19.70;65.40;;;18.83;63.34;98683.69;5096806;28;20878;-82
2021/09/06 08:15:18;;;;;;;13.80;12.50;;;19.70;65.20;;;18.93;62.93;98681.09;5103302;28;20771;-80
2021/09/06 08:17:46;;;;;;;14.17;12.77;;;19.80;65.10;;;19.07;62.75;98675.25;5114734;28;20459;-81
2021/09/06 08:20:16;;;;;;;15.50;11.90;;;20.00;65.10;;;19.24;61.48;98692.44;5110356;28;20469;-82
2021/09/06 08:22:45;;;;;;;15.03;12.57;;;20.10;64.20;;;19.35;61.29;98696.13;5122109;28;20458;-79
2021/09/06 08:25:14;;;;;;;12.33;11.20;;;20.20;63.90;;;19.21;60.79;98659.25;5124719;28;20455;-81
2021/09/06 08:27:42;;;;;;;13.00;11.80;;;20.30;63.60;;;19.53;60.59;98686.72;5117737;28;20508;-80
2021/09/06 08:30:13;;;;;;;13.43;12.13;;;20.40;63.40;;;19.51;59.81;98686.16;5103063;28;20451;-80
2021/09/06 08:32:48;;;;;;;15.33;11.80;;;20.50;62.80;;;19.27;59.90;98624.53;5125152;27;20485;-81
2021/09/06 08:35:20;;;;;;;12.57;11.17;;;20.50;62.80;;;19.79;60.11;98683.41;5118141;28;20459;-81
2021/09/06 08:37:48;;;;;;;13.03;11.73;;;20.70;63.00;;;19.87;59.13;98671.16;5107129;28;20485;-82
2021/09/06 08:40:16;;;;;;;12.83;11.40;;;20.80;62.60;;;20.03;58.34;98708.59;5108372;28;20543;-81
2021/09/06 08:42:44;;;;;;;12.57;11.33;;;20.80;61.80;;;20.09;58.00;98687.53;5124333;28;20488;-81
2021/09/06 08:45:14;;;;;;;13.70;12.00;;;20.90;61.60;;;20.08;57.78;98694.94;5105962;28;20448;-80
2021/09/06 08:47:42;;;;;;;15.83;10.83;;;21.00;61.40;;;20.29;57.94;98700.59;5120450;27;21277;-80
2021/09/06 08:50:13;;;;;;;12.60;11.47;;;21.10;61.40;;;20.52;56.91;98701.28;5114769;28;20480;-81
2021/09/06 08:52:42;;;;;;;12.10;11.00;;;21.30;61.00;;;20.59;56.24;98698.31;5118863;28;20448;-80
2021/09/06 08:55:13;;;;;;;11.67;10.57;;;21.40;60.60;;;20.71;56.16;98698.13;5120313;27;20472;-80
2021/09/06 08:57:41;;;;;;;14.10;11.00;;;21.50;60.30;;;20.69;55.92;98692.91;5120725;28;20451;-81
2021/09/06 09:00:12;;;;;;;12.63;11.37;;;21.50;60.20;;;20.87;56.08;98699.91;5118370;28;20479;-82
2021/09/06 09:02:41;;;;;;;12.00;10.80;;;21.60;60.20;;;20.91;55.54;98703.75;5123808;27;20451;-81
2021/09/06 09:05:15;;;;;;;11.13;10.03;;;21.70;59.90;;;20.91;56.02;98712.00;5103485;28;20447;-82
2021/09/06 09:07:43;;;;;;;14.23;10.73;;;21.70;60.00;;;20.14;55.66;98615.44;5106375;28;20518;-82
2021/09/06 09:10:27;;;;;;;12.23;11.00;;;21.70;59.60;;;20.67;56.85;98706.88;5130837;28;20488;-81
2021/09/06 09:13:05;;;;;;;12.63;11.37;;;21.50;59.90;;;20.84;56.80;98716.06;5127811;28;20451;-82
2021/09/06 09:15:34;;;;;;;12.60;11.40;;;21.60;60.30;;;20.78;56.24;98698.72;5132900;28;20538;-82
2021/09/06 09:18:03;;;;;;;12.90;11.63;;;21.70;59.90;;;21.16;55.62;98713.22;5109087;28;20531;-82
2021/09/06 09:20:41;;;;;;;11.63;10.43;;;21.90;60.00;;;21.23;55.57;98712.97;5124932;28;20558;-82
2021/09/06 09:23:11;;;;;;;12.50;11.30;;;22.00;60.00;;;21.37;55.08;98716.84;5119596;28;20530;-82
2021/09/06 09:25:39;;;;;;;11.83;10.50;;;22.10;59.80;;;21.29;54.48;98703.63;5114725;28;20518;-82
2021/09/06 09:28:09;;;;;;;11.37;10.17;;;22.20;59.30;;;21.50;54.64;98717.44;5104286;28;20561;-84
2021/09/06 09:30:37;;;;;;;12.20;11.10;;;22.30;59.40;;;21.22;55.16;98661.84;5090154;28;20448;-83
2021/09/06 09:33:14;;;;;;;12.63;11.43;;;22.30;59.70;;;21.69;52.98;98704.03;5120669;27;20518;-84
2021/09/06 09:35:42;;;;;;;12.17;11.07;;;22.50;58.70;;;21.69;53.77;98698.53;5116474;27;20443;-81
2021/09/06 09:38:15;;;;;;;12.40;11.30;;;22.50;59.00;;;21.96;53.35;98716.75;5119675;27;20454;-81
2021/09/06 09:40:48;;;;;;;12.05;10.85;;;22.70;58.90;;;22.01;52.24;98719.47;5117447;28;20798;-77
2021/09/06 09:43:21;;;;;;;11.73;10.60;;;22.80;58.30;;;21.93;52.85;98709.84;5108930;28;20254;-83
2021/09/06 09:46:03;;;;;;;11.47;10.27;;;22.80;58.40;;;22.11;52.02;98712.34;5118883;27;20450;-80
2021/09/06 09:48:30;;;;;;;12.37;9.87;;;22.90;58.00;;;22.02;52.23;98712.88;5118006;28;20555;-81
2021/09/06 09:50:58;;;;;;;12.50;11.20;;;22.80;58.10;;;22.04;52.51;98710.69;5122073;28;20459;-81
2021/09/06 09:53:27;;;;;;;12.43;11.13;;;22.80;58.00;;;22.20;51.83;98718.94;5109513;28;20435;-79
2021/09/06 09:55:55;;;;;;;11.93;10.73;;;22.90;57.90;;;22.33;51.44;98706.56;5117884;27;20458;-80
2021/09/06 09:58:22;;;;;;;11.43;10.43;;;23.00;57.70;;;22.39;51.14;98701.88;5095148;28;20463;-79
2021/09/06 10:00:55;;;;;;;11.67;10.57;;;23.20;57.50;;;22.46;51.10;98700.50;5096101;28;20966;-78
2021/09/06 10:03:26;;;;;;;12.17;9.40;;;23.20;57.30;;;22.50;49.22;98712.63;5113696;27;20485;-79
2021/09/06 10:05:54;;;;;;;11.03;10.03;;;23.30;56.50;;;22.62;50.09;98706.81;5082144;28;20486;-79
2021/09/06 10:08:23;;;;;;;10.33;9.33;;;23.30;56.90;;;22.69;49.49;98713.97;5115632;28;20576;-79
2021/09/06 10:10:51;;;;;;;12.20;11.10;;;23.40;56.50;;;22.67;48.04;98694.13;5089848;28;20798;-79
2021/09/06 10:13:25;;;;;;;10.83;9.77;;;23.50;55.70;;;22.83;48.22;98704.03;5114935;28;20466;-82
2021/09/06 10:16:04;;;;;;;11.07;9.97;;;23.60;55.80;;;22.85;47.77;98701.81;5098652;28;20455;-79
2021/09/06 10:18:40;;;;;;;9.63;8.83;;;23.60;55.40;;;22.86;48.13;98708.97;5112009;28;20523;-80
2021/09/06 10:21:15;;;;;;;10.40;9.30;;;23.60;55.40;;;22.78;47.73;98701.28;5106576;28;20456;-79
2021/09/06 10:23:45;;;;;;;10.23;9.23;;;23.60;55.20;;;22.72;47.83;98694.94;5113694;28;20464;-79